createdAt,value
2019-03-30T00:01:55.703Z,100946.53
2019-03-30T00:06:03.198Z,100945.90
2019-03-30T00:10:13.852Z,100945.58
2019-03-30T00:14:21.371Z,100938.97
2019-03-30T00:18:28.927Z,100939.40
2019-03-30T00:22:36.511Z,100934.94
2019-03-30T00:26:44.038Z,100933.31
2019-03-30T00:30:51.610Z,100932.36
2019-03-30T00:34:59.098Z,100934.37
2019-03-30T00:39:09.204Z,100935.05
2019-03-30T00:43:16.678Z,100940.67
2019-03-30T00:47:25.204Z,100938.71
2019-03-30T00:51:32.727Z,100943.50
2019-03-30T00:55:40.218Z,100941.72
2019-03-30T00:59:47.742Z,100944.72
2019-03-30T01:03:55.312Z,100943.22
2019-03-30T01:08:02.871Z,100937.11
2019-03-30T01:12:10.746Z,100937.11
2019-03-30T01:16:18.247Z,100937.46
2019-03-30T01:20:25.730Z,100930.84
2019-03-30T01:24:33.407Z,100932.03
2019-03-30T01:28:40.941Z,100933.98
2019-03-30T01:32:48.547Z,100928.70
2019-03-30T01:36:56.057Z,100933.34
2019-03-30T01:41:03.612Z,100927.25
2019-03-30T01:45:11.525Z,100929.57
2019-03-30T01:49:19.004Z,100924.93
2019-03-30T01:53:26.697Z,100921.63
2019-03-30T01:57:34.732Z,100916.70
2019-03-30T02:01:42.447Z,100913.05
2019-03-30T02:05:50.027Z,100908.27
2019-03-30T02:09:57.597Z,100898.21
2019-03-30T02:14:05.149Z,100898.53
2019-03-30T02:18:12.963Z,100898.05
2019-03-30T02:22:20.549Z,100896.51
2019-03-30T02:26:28.201Z,100896.05
2019-03-30T02:30:35.803Z,100893.91
2019-03-30T02:34:43.405Z,100891.90
2019-03-30T02:38:50.873Z,100884.31
2019-03-30T02:42:58.494Z,100887.27
2019-03-30T02:47:06.043Z,100884.28
2019-03-30T02:51:13.815Z,100877.02
2019-03-30T02:55:21.293Z,100873.03
2019-03-30T02:59:28.811Z,100873.38
2019-03-30T03:03:36.388Z,100873.84
2019-03-30T03:07:44.048Z,100876.28
2019-03-30T03:11:51.555Z,100871.97
2019-03-30T03:15:59.169Z,100874.58
2019-03-30T03:20:06.991Z,100872.56
2019-03-30T03:24:14.766Z,100870.05
2019-03-30T03:28:22.355Z,100862.14
2019-03-30T03:32:29.868Z,100866.56
2019-03-30T03:36:37.382Z,100866.87
2019-03-30T03:40:44.864Z,100861.73
2019-03-30T03:44:52.435Z,100869.88
2019-03-30T03:49:00.302Z,100856.19
2019-03-30T03:53:07.880Z,100860.70
2019-03-30T03:57:19.131Z,100854.45
2019-03-30T04:01:29.218Z,100844.98
2019-03-30T04:05:39.194Z,100846.89
2019-03-30T04:09:50.372Z,100842.05
2019-03-30T04:14:01.339Z,100846.40
2019-03-30T04:18:08.871Z,100843.89
2019-03-30T04:22:16.372Z,100845.28
2019-03-30T04:26:23.887Z,100836.23
2019-03-30T04:30:31.433Z,100842.12
2019-03-30T04:34:38.960Z,100842.48
2019-03-30T04:38:46.524Z,100836.20
2019-03-30T04:42:54.219Z,100836.03
2019-03-30T04:47:02.602Z,100841.79
2019-03-30T04:51:10.123Z,100837.11
2019-03-30T04:55:17.703Z,100830.28
2019-03-30T04:59:25.333Z,100830.11
2019-03-30T05:03:32.868Z,100833.19
2019-03-30T05:07:40.418Z,100832.26
2019-03-30T05:11:48.005Z,100836.66
2019-03-30T05:15:55.496Z,100836.13
2019-03-30T05:20:03.020Z,100844.67
2019-03-30T05:24:10.631Z,100841.52
2019-03-30T05:28:18.172Z,100845.30
2019-03-30T05:32:26.089Z,100842.05
2019-03-30T05:36:33.701Z,100846.00
2019-03-30T05:40:41.210Z,100852.34
2019-03-30T05:44:48.703Z,100848.56
2019-03-30T05:48:56.215Z,100856.46
2019-03-30T05:53:03.768Z,100854.73
2019-03-30T05:57:11.339Z,100844.59
2019-03-30T06:01:18.829Z,100852.57
2019-03-30T06:05:26.405Z,100851.17
2019-03-30T06:09:33.995Z,100847.22
2019-03-30T06:13:41.512Z,100856.38
2019-03-30T06:17:49.119Z,100859.38
2019-03-30T06:21:56.737Z,100858.48
2019-03-30T06:26:04.457Z,100860.99
2019-03-30T06:30:26.531Z,100858.33
2019-03-30T06:34:34.095Z,100862.38
2019-03-30T06:38:41.616Z,100865.27
2019-03-30T06:42:49.131Z,100859.12
2019-03-30T06:46:56.799Z,100859.84
2019-03-30T06:51:05.694Z,100861.45
2019-03-30T06:55:13.300Z,100854.77
2019-03-30T06:59:20.904Z,100853.94
2019-03-30T07:03:28.408Z,100861.16
2019-03-30T07:07:37.333Z,100863.23
2019-03-30T07:11:47.416Z,100864.02
2019-03-30T07:15:58.674Z,100859.30
2019-03-30T07:20:09.995Z,100866.12
2019-03-30T07:24:18.169Z,100860.36
2019-03-30T07:28:25.905Z,100861.52
2019-03-30T07:32:33.512Z,100857.10
2019-03-30T07:36:41.184Z,100854.77
2019-03-30T07:40:48.886Z,100853.91
2019-03-30T07:44:56.378Z,100857.52
2019-03-30T07:49:04.499Z,100850.63
2019-03-30T07:53:25.716Z,100853.05
2019-03-30T07:57:21.558Z,100857.77
2019-03-30T08:01:29.185Z,100850.15
2019-03-30T08:05:37.706Z,100848.06
2019-03-30T08:09:45.353Z,100854.90
2019-03-30T08:13:53.129Z,100851.53
2019-03-30T08:18:04.883Z,100856.03
2019-03-30T08:22:12.480Z,100856.13
2019-03-30T08:26:20.424Z,100850.14
2019-03-30T08:30:28.081Z,100858.70
2019-03-30T08:34:38.081Z,100855.25
2019-03-30T08:38:47.503Z,100863.97
2019-03-30T08:42:55.285Z,100861.27
2019-03-30T08:47:07.202Z,100860.34
2019-03-30T08:51:20.577Z,100854.36
2019-03-30T08:55:26.424Z,100851.44
2019-03-30T08:59:34.049Z,100856.39
2019-03-30T09:03:41.615Z,100848.77
2019-03-30T09:07:49.327Z,100856.77
2019-03-30T09:11:56.793Z,100854.78
2019-03-30T09:16:04.509Z,100850.78
2019-03-30T09:20:12.062Z,100846.16
2019-03-30T09:24:19.603Z,100845.06
2019-03-30T09:28:27.286Z,100841.59
2019-03-30T09:32:34.870Z,100846.21
2019-03-30T09:36:42.818Z,100835.05
2019-03-30T09:40:50.438Z,100833.22
2019-03-30T09:44:58.194Z,100828.77
2019-03-30T09:49:06.845Z,100822.74
2019-03-30T09:53:14.649Z,100824.40
2019-03-30T09:57:23.419Z,100814.94
2019-03-30T10:01:31.527Z,100816.92
2019-03-30T10:05:42.987Z,100803.25
2019-03-30T10:09:50.650Z,100808.55
2019-03-30T10:13:58.285Z,100811.61
2019-03-30T10:18:07.018Z,100795.47
2019-03-30T10:22:14.756Z,100800.97
2019-03-30T10:26:23.053Z,100792.54
2019-03-30T10:30:30.695Z,100786.27
2019-03-30T10:34:40.241Z,100779.75
2019-03-30T10:38:47.971Z,100772.26
2019-03-30T10:43:02.047Z,100773.33
2019-03-30T10:47:12.764Z,100769.62
2019-03-30T10:51:20.612Z,100761.98
2019-03-30T10:55:28.280Z,100756.68
2019-03-30T10:59:35.968Z,100755.45
2019-03-30T11:03:43.688Z,100749.00
2019-03-30T11:07:51.223Z,100745.92
2019-03-30T11:12:00.071Z,100739.35
2019-03-30T11:16:07.674Z,100731.47
2019-03-30T11:20:15.343Z,100720.91
2019-03-30T11:24:22.968Z,100720.53
2019-03-30T11:28:31.655Z,100721.48
2019-03-30T11:32:39.869Z,100713.42
2019-03-30T11:36:47.708Z,100713.09
2019-03-30T11:40:56.348Z,100703.95
2019-03-30T11:45:04.064Z,100693.00
2019-03-30T11:49:11.772Z,100695.33
2019-03-30T11:53:19.451Z,100685.64
2019-03-30T11:57:27.095Z,100681.63
2019-03-30T12:01:34.689Z,100676.86
2019-03-30T12:05:42.286Z,100673.38
2019-03-30T12:10:01.085Z,100678.21
2019-03-30T12:14:13.383Z,100672.13
2019-03-30T12:18:21.046Z,100671.88
2019-03-30T12:22:28.697Z,100665.92
2019-03-30T12:26:36.607Z,100655.96
2019-03-30T12:30:44.607Z,100650.30
2019-03-30T12:34:52.294Z,100645.40
2019-03-30T12:39:00.022Z,100638.95
2019-03-30T12:43:07.816Z,100633.53
2019-03-30T12:47:15.628Z,100624.95
2019-03-30T12:51:23.458Z,100621.84
2019-03-30T12:55:33.219Z,100615.92
2019-03-30T12:59:40.926Z,100608.38
2019-03-30T13:03:49.650Z,100598.80
2019-03-30T13:07:57.456Z,100596.13
2019-03-30T13:12:06.624Z,100588.52
2019-03-30T13:16:14.789Z,100575.53
2019-03-30T13:20:22.909Z,100582.83
2019-03-30T13:24:30.984Z,100568.87
2019-03-30T13:28:47.825Z,100569.66
2019-03-30T13:32:56.832Z,100571.45
2019-03-30T13:37:20.269Z,100558.16
2019-03-30T13:41:28.353Z,100558.55
2019-03-30T13:45:36.417Z,100546.31
2019-03-30T13:49:44.229Z,100544.53
2019-03-30T13:53:52.463Z,100534.95
2019-03-30T13:58:00.449Z,100533.19
2019-03-30T14:02:08.658Z,100523.70
2019-03-30T14:06:17.001Z,100523.05
2019-03-30T14:10:25.898Z,100523.05
2019-03-30T14:14:34.569Z,100517.28
2019-03-30T14:18:43.402Z,100510.89
2019-03-30T14:22:53.415Z,100501.61
2019-03-30T14:27:01.296Z,100496.34
2019-03-30T14:31:09.238Z,100496.25
2019-03-30T14:35:17.799Z,100495.23
2019-03-30T14:39:25.578Z,100487.36
2019-03-30T14:43:33.489Z,100476.12
2019-03-30T14:47:41.657Z,100473.12
2019-03-30T14:51:49.725Z,100473.42
2019-03-30T14:55:58.397Z,100462.88
2019-03-30T15:00:08.300Z,100453.69
2019-03-30T15:04:16.253Z,100451.92
2019-03-30T15:08:24.822Z,100452.16
2019-03-30T15:12:32.697Z,100441.39
2019-03-30T15:16:42.500Z,100442.42
2019-03-30T15:20:50.459Z,100434.91
2019-03-30T15:24:59.559Z,100422.91
2019-03-30T15:29:08.547Z,100418.18
2019-03-30T15:33:16.899Z,100420.17
2019-03-30T15:37:25.162Z,100409.65
2019-03-30T15:41:34.203Z,100407.19
2019-03-30T15:45:42.567Z,100399.45
2019-03-30T15:49:51.039Z,100398.34
2019-03-30T15:54:00.699Z,100387.05
2019-03-30T15:58:09.536Z,100380.64
2019-03-30T16:02:18.247Z,100378.90
2019-03-30T16:06:26.381Z,100373.95
2019-03-30T16:10:34.477Z,100374.88
2019-03-30T16:14:43.718Z,100375.09
2019-03-30T16:18:51.431Z,100369.14
2019-03-30T16:22:59.750Z,100370.00
2019-03-30T16:27:08.068Z,100373.48
2019-03-30T16:31:15.983Z,100369.63
2019-03-30T16:35:24.419Z,100362.41
2019-03-30T16:39:34.851Z,100363.16
2019-03-30T16:43:42.123Z,100358.01
2019-03-30T16:47:53.723Z,100359.50
2019-03-30T16:52:01.625Z,100358.00
2019-03-30T16:56:11.006Z,100355.58
2019-03-30T17:00:21.381Z,100356.59
2019-03-30T17:04:34.273Z,100355.77
2019-03-30T17:08:45.227Z,100353.70
2019-03-30T17:12:56.564Z,100356.58
2019-03-30T17:17:08.005Z,100357.61
2019-03-30T17:21:16.144Z,100355.87
2019-03-30T17:25:24.688Z,100354.99
2019-03-30T17:29:34.843Z,100354.72
2019-03-30T17:33:43.396Z,100356.80
2019-03-30T17:37:51.249Z,100360.09
2019-03-30T17:42:01.087Z,100359.20
2019-03-30T17:46:12.082Z,100355.93
2019-03-30T17:50:21.373Z,100362.28
2019-03-30T17:54:32.672Z,100360.28
2019-03-30T17:58:45.113Z,100370.45
2019-03-30T18:02:53.333Z,100368.95
2019-03-30T18:07:03.083Z,100369.59
2019-03-30T18:11:13.656Z,100364.26
2019-03-30T18:15:23.199Z,100371.20
2019-03-30T18:19:31.491Z,100374.36
2019-03-30T18:23:41.347Z,100376.41
2019-03-30T18:27:49.385Z,100379.39
2019-03-30T18:31:57.707Z,100382.67
2019-03-30T18:36:06.661Z,100386.33
2019-03-30T18:40:31.798Z,100381.66
2019-03-30T18:44:41.427Z,100387.67
2019-03-30T18:48:49.587Z,100399.67
2019-03-30T18:53:00.395Z,100402.89
2019-03-30T18:57:08.979Z,100404.58
2019-03-30T19:01:39.430Z,100400.28
2019-03-30T19:05:48.389Z,100410.97
2019-03-30T19:10:00.675Z,100408.89
2019-03-30T19:14:08.845Z,100411.92
2019-03-30T19:18:16.422Z,100409.38
2019-03-30T19:22:25.123Z,100408.94
2019-03-30T19:26:32.880Z,100404.17
2019-03-30T19:30:42.365Z,100411.27
2019-03-30T19:34:53.389Z,100412.14
2019-03-30T19:39:01.056Z,100409.75
2019-03-30T19:43:12.967Z,100411.73
2019-03-30T19:47:20.969Z,100409.34
2019-03-30T19:51:28.698Z,100416.69
2019-03-30T19:55:37.621Z,100407.85
2019-03-30T19:59:45.591Z,100412.38
2019-03-30T20:03:53.177Z,100417.34
2019-03-30T20:08:11.447Z,100412.20
2019-03-30T20:12:10.531Z,100415.09
2019-03-30T20:16:29.196Z,100419.76
2019-03-30T20:20:36.980Z,100412.33
2019-03-30T20:24:44.876Z,100419.83
2019-03-30T20:28:52.729Z,100418.31
2019-03-30T20:33:00.508Z,100420.27
2019-03-30T20:37:08.124Z,100414.12
2019-03-30T20:41:15.640Z,100413.59
2019-03-30T20:45:23.528Z,100417.74
2019-03-30T20:49:31.181Z,100422.41
2019-03-30T20:53:39.008Z,100413.82
2019-03-30T20:57:46.612Z,100419.30
2019-03-30T21:01:54.342Z,100418.20
2019-03-30T21:06:02.021Z,100416.41
2019-03-30T21:10:12.233Z,100416.98
2019-03-30T21:14:20.030Z,100426.02
2019-03-30T21:18:27.765Z,100417.23
2019-03-30T21:22:35.402Z,100414.92
2019-03-30T21:26:43.522Z,100426.89
2019-03-30T21:30:51.181Z,100423.47
2019-03-30T21:34:58.860Z,100427.30
2019-03-30T21:39:08.444Z,100417.63
2019-03-30T21:43:19.443Z,100423.41
2019-03-30T21:47:25.404Z,100419.39
2019-03-30T21:51:39.703Z,100415.92
2019-03-30T21:55:47.656Z,100419.03
2019-03-30T22:00:09.057Z,100416.14
2019-03-30T22:04:04.581Z,100422.62
2019-03-30T22:08:12.315Z,100425.95
2019-03-30T22:12:19.846Z,100432.31
2019-03-30T22:16:28.463Z,100444.79
2019-03-30T22:20:37.061Z,100444.37
2019-03-30T22:24:44.651Z,100442.16
2019-03-30T22:28:52.308Z,100446.89
2019-03-30T22:33:00.039Z,100443.49
2019-03-30T22:37:07.683Z,100442.49
2019-03-30T22:41:15.520Z,100439.94
2019-03-30T22:45:27.289Z,100440.75
2019-03-30T22:49:34.922Z,100446.30
2019-03-30T22:53:44.223Z,100442.49
2019-03-30T22:57:57.574Z,100441.01
2019-03-30T23:02:09.364Z,100438.86
2019-03-30T23:06:17.957Z,100443.97
2019-03-30T23:10:25.705Z,100445.11
2019-03-30T23:14:36.955Z,100439.34
2019-03-30T23:18:45.531Z,100435.52
2019-03-30T23:22:53.196Z,100436.71
2019-03-30T23:27:02.883Z,100428.78
2019-03-30T23:31:14.527Z,100426.14
2019-03-30T23:35:23.038Z,100421.23
2019-03-30T23:39:30.883Z,100418.98
2019-03-30T23:43:38.572Z,100421.05
2019-03-30T23:47:46.403Z,100415.61
2019-03-30T23:51:54.386Z,100417.72
2019-03-30T23:56:06.162Z,100427.48
